sensor_id;sensor_type;location;lat;lon;timestamp;pressure;altitude;pressure_sealevel;temperature;humidity
71764;BME280;59602;52.142;5.408;2023-08-24T10:49:09;101512.00;;;23.07;78.79
71764;BME280;59602;52.142;5.408;2023-08-24T11:01:05;101498.63;;;23.15;81.10
71764;BME280;59602;52.142;5.408;2023-08-24T11:04:02;101489.75;;;23.20;81.56
71764;BME280;59602;52.142;5.408;2023-08-24T11:07:15;101482.06;;;23.24;80.24
71764;BME280;59602;52.142;5.408;2023-08-24T11:09:46;101485.94;;;23.27;82.48
71764;BME280;59602;52.142;5.408;2023-08-24T11:12:14;101489.94;;;23.26;82.40
71764;BME280;59602;52.142;5.408;2023-08-24T11:14:54;101491.63;;;23.23;82.16
71764;BME280;59602;52.142;5.408;2023-08-24T11:17:30;101489.75;;;23.20;82.24
71764;BME280;59602;52.142;5.408;2023-08-24T11:23:20;101470.66;;;23.22;82.86
71764;BME280;59602;52.142;5.408;2023-08-24T11:26:16;101476.38;;;23.28;83.18
71764;BME280;59602;52.142;5.408;2023-08-24T11:28:42;101459.94;;;23.33;83.58
71764;BME280;59602;52.142;5.408;2023-08-24T11:31:09;101451.00;;;23.38;83.40
71764;BME280;59602;52.142;5.408;2023-08-24T11:34:17;101446.44;;;23.45;81.41
71764;BME280;59602;52.142;5.408;2023-08-24T11:37:29;101440.28;;;23.50;80.31
71764;BME280;59602;52.142;5.408;2023-08-24T11:40:01;101436.56;;;23.53;79.08
71764;BME280;59602;52.142;5.408;2023-08-24T11:43:06;101437.22;;;23.57;79.86
71764;BME280;59602;52.142;5.408;2023-08-24T11:46:44;101418.88;;;23.59;79.11
71764;BME280;59602;52.142;5.408;2023-08-24T11:49:28;101411.50;;;23.66;78.82
71764;BME280;59602;52.142;5.408;2023-08-24T11:52:17;101418.00;;;23.72;78.73
71764;BME280;59602;52.142;5.408;2023-08-24T11:54:51;101405.56;;;23.76;80.30
71764;BME280;59602;52.142;5.408;2023-08-24T11:57:18;101409.13;;;23.86;79.30
71764;BME280;59602;52.142;5.408;2023-08-24T11:59:45;101406.38;;;23.95;76.53
71764;BME280;59602;52.142;5.408;2023-08-24T12:02:43;101413.97;;;24.04;76.50
71764;BME280;59602;52.142;5.408;2023-08-24T12:05:43;101416.44;;;24.11;77.10
71764;BME280;59602;52.142;5.408;2023-08-24T12:08:31;101416.16;;;24.18;76.98
71764;BME280;59602;52.142;5.408;2023-08-24T12:12:16;101407.66;;;24.31;75.00
71764;BME280;59602;52.142;5.408;2023-08-24T12:15:33;101404.75;;;24.44;73.58
71764;BME280;59602;52.142;5.408;2023-08-24T12:18:30;101409.75;;;24.68;74.34
71764;BME280;59602;52.142;5.408;2023-08-24T12:21:18;101397.06;;;24.85;72.50
71764;BME280;59602;52.142;5.408;2023-08-24T12:23:59;101388.22;;;24.96;73.10
71764;BME280;59602;52.142;5.408;2023-08-24T12:26:27;101392.09;;;24.98;73.05
71764;BME280;59602;52.142;5.408;2023-08-24T12:31:43;101375.22;;;25.02;72.39
71764;BME280;59602;52.142;5.408;2023-08-24T12:37:18;101374.78;;;24.94;70.43
71764;BME280;59602;52.142;5.408;2023-08-24T12:39:44;101364.25;;;24.89;71.54
71764;BME280;59602;52.142;5.408;2023-08-24T12:42:35;101347.75;;;24.85;71.06
71764;BME280;59602;52.142;5.408;2023-08-24T12:45:05;101340.00;;;24.80;70.58
71764;BME280;59602;52.142;5.408;2023-08-24T12:51:00;101308.97;;;24.73;71.23
71764;BME280;59602;52.142;5.408;2023-08-24T12:56:41;101320.88;;;24.73;71.32
71764;BME280;59602;52.142;5.408;2023-08-24T12:59:11;101313.59;;;24.76;71.89
71764;BME280;59602;52.142;5.408;2023-08-24T13:01:38;101302.63;;;24.81;71.06
71764;BME280;59602;52.142;5.408;2023-08-24T13:04:05;101292.09;;;24.95;70.29
71764;BME280;59602;52.142;5.408;2023-08-24T13:06:35;101283.69;;;25.04;68.91
71764;BME280;59602;52.142;5.408;2023-08-24T13:09:02;101273.94;;;25.09;69.37
71764;BME280;59602;52.142;5.408;2023-08-24T13:11:29;101264.63;;;25.12;69.81
71764;BME280;59602;52.142;5.408;2023-08-24T13:13:56;101264.81;;;25.08;69.11
71764;BME280;59602;52.142;5.408;2023-08-24T13:16:23;101275.78;;;25.12;69.24
71764;BME280;59602;52.142;5.408;2023-08-24T13:18:50;101290.78;;;25.14;70.05
71764;BME280;59602;52.142;5.408;2023-08-24T13:21:17;101295.41;;;25.17;71.78
71764;BME280;59602;52.142;5.408;2023-08-24T13:23:56;101309.66;;;25.19;71.05
71764;BME280;59602;52.142;5.408;2023-08-24T13:26:23;101318.59;;;25.23;70.11
71764;BME280;59602;52.142;5.408;2023-08-24T13:28:50;101308.84;;;25.28;70.68
71764;BME280;59602;52.142;5.408;2023-08-24T13:31:18;101313.44;;;25.31;69.97
71764;BME280;59602;52.142;5.408;2023-08-24T13:33:46;101324.13;;;25.33;69.67
71764;BME280;59602;52.142;5.408;2023-08-24T13:36:13;101331.06;;;25.37;69.98
71764;BME280;59602;52.142;5.408;2023-08-24T13:38:45;101333.19;;;25.42;70.69
71764;BME280;59602;52.142;5.408;2023-08-24T13:41:45;101307.91;;;25.55;69.19
71764;BME280;59602;52.142;5.408;2023-08-24T13:44:14;101297.31;;;25.68;69.23
71764;BME280;59602;52.142;5.408;2023-08-24T13:46:41;101294.38;;;25.72;68.63
71764;BME280;59602;52.142;5.408;2023-08-24T13:52:09;101297.31;;;25.68;69.69
71764;BME280;59602;52.142;5.408;2023-08-24T13:54:57;101291.59;;;25.72;69.43
71764;BME280;59602;52.142;5.408;2023-08-24T13:57:37;101287.53;;;25.73;69.00
71764;BME280;59602;52.142;5.408;2023-08-24T14:00:09;101277.91;;;25.74;68.46
71764;BME280;59602;52.142;5.408;2023-08-24T14:02:38;101286.00;;;25.72;69.21
71764;BME280;59602;52.142;5.408;2023-08-24T14:05:41;101291.59;;;25.72;69.62
71764;BME280;59602;52.142;5.408;2023-08-24T14:08:45;101292.50;;;25.69;69.95
71764;BME280;59602;52.142;5.408;2023-08-24T14:11:38;101289.44;;;25.67;70.07
71764;BME280;59602;52.142;5.408;2023-08-24T14:14:33;101290.84;;;25.62;71.13
71764;BME280;59602;52.142;5.408;2023-08-24T14:17:27;101291.69;;;25.54;70.92
71764;BME280;59602;52.142;5.408;2023-08-24T14:20:12;101290.00;;;25.47;70.86
71764;BME280;59602;52.142;5.408;2023-08-24T14:22:41;101288.34;;;25.40;71.19
71764;BME280;59602;52.142;5.408;2023-08-24T14:25:42;101286.06;;;25.39;70.88
71764;BME280;59602;52.142;5.408;2023-08-24T14:28:26;101279.13;;;25.34;71.13
71764;BME280;59602;52.142;5.408;2023-08-24T14:31:36;101279.88;;;25.35;72.16
71764;BME280;59602;52.142;5.408;2023-08-24T14:34:27;101268.91;;;25.31;71.58
71764;BME280;59602;52.142;5.408;2023-08-24T14:36:54;101268.59;;;25.29;72.21
71764;BME280;59602;52.142;5.408;2023-08-24T14:39:27;101269.25;;;25.24;71.85
71764;BME280;59602;52.142;5.408;2023-08-24T14:41:54;101264.66;;;25.21;72.22
71764;BME280;59602;52.142;5.408;2023-08-24T14:44:26;101267.13;;;25.19;72.50
71764;BME280;59602;52.142;5.408;2023-08-24T14:46:59;101264.19;;;25.13;71.71
71764;BME280;59602;52.142;5.408;2023-08-24T14:49:33;101263.56;;;25.09;72.72
71764;BME280;59602;52.142;5.408;2023-08-24T14:52:36;101264.97;;;25.04;73.56
71764;BME280;59602;52.142;5.408;2023-08-24T14:55:10;101259.31;;;24.99;73.13
71764;BME280;59602;52.142;5.408;2023-08-24T14:57:54;101264.25;;;24.95;74.26
71764;BME280;59602;52.142;5.408;2023-08-24T15:00:25;101252.69;;;24.87;72.54
71764;BME280;59602;52.142;5.408;2023-08-24T15:02:57;101254.09;;;24.82;72.37
71764;BME280;59602;52.142;5.408;2023-08-24T15:05:43;101253.97;;;24.77;72.03
71764;BME280;59602;52.142;5.408;2023-08-24T15:08:13;101254.13;;;24.73;73.00
71764;BME280;59602;52.142;5.408;2023-08-24T15:10:40;101240.84;;;24.68;72.44
71764;BME280;59602;52.142;5.408;2023-08-24T15:13:15;101231.00;;;24.67;73.50
71764;BME280;59602;52.142;5.408;2023-08-24T15:16:04;101228.22;;;24.67;74.07
71764;BME280;59602;52.142;5.408;2023-08-24T15:19:05;101231.00;;;24.67;74.49
71764;BME280;59602;52.142;5.408;2023-08-24T15:21:40;101230.50;;;24.69;75.60
71764;BME280;59602;52.142;5.408;2023-08-24T15:24:43;101229.44;;;24.66;74.98
71764;BME280;59602;52.142;5.408;2023-08-24T15:27:27;101237.31;;;24.68;75.60
71764;BME280;59602;52.142;5.408;2023-08-24T15:31:04;101234.03;;;24.69;76.11
71764;BME280;59602;52.142;5.408;2023-08-24T15:37:28;101228.03;;;24.71;77.69
71764;BME280;59602;52.142;5.408;2023-08-24T15:47:40;101192.44;;;24.84;76.46
71764;BME280;59602;52.142;5.408;2023-08-24T15:53:38;101187.31;;;25.16;75.58
71764;BME280;59602;52.142;5.408;2023-08-24T15:56:53;101176.81;;;25.20;73.93
71764;BME280;59602;52.142;5.408;2023-08-24T16:00:04;101164.75;;;25.23;72.75
71764;BME280;59602;52.142;5.408;2023-08-24T16:06:36;101173.09;;;25.23;72.31
71764;BME280;59602;52.142;5.408;2023-08-24T16:12:27;101177.91;;;25.13;73.25
71764;BME280;59602;52.142;5.408;2023-08-24T16:15:33;101182.25;;;25.05;73.21
71764;BME280;59602;52.142;5.408;2023-08-24T16:18:46;101174.28;;;24.98;72.70
71764;BME280;59602;52.142;5.408;2023-08-24T16:22:18;101173.22;;;24.95;73.91
71764;BME280;59602;52.142;5.408;2023-08-24T16:29:21;101177.28;;;24.85;73.18
71764;BME280;59602;52.142;5.408;2023-08-24T16:32:13;101172.25;;;24.74;72.91
71764;BME280;59602;52.142;5.408;2023-08-24T16:34:59;101155.72;;;24.71;73.42
71764;BME280;59602;52.142;5.408;2023-08-24T16:38:26;101161.47;;;24.67;73.17
71764;BME280;59602;52.142;5.408;2023-08-24T16:41:32;101164.41;;;24.63;73.40
71764;BME280;59602;52.142;5.408;2023-08-24T16:47:57;101161.00;;;24.59;74.39
71764;BME280;59602;52.142;5.408;2023-08-24T17:05:19;101145.44;;;24.53;74.30
71764;BME280;59602;52.142;5.408;2023-08-24T17:16:42;101149.50;;;24.33;75.95
71764;BME280;59602;52.142;5.408;2023-08-24T17:18:52;101154.91;;;24.28;76.47
71764;BME280;59602;52.142;5.408;2023-08-24T17:21:22;101151.06;;;24.25;77.04
71764;BME280;59602;52.142;5.408;2023-08-24T17:24:14;101153.84;;;24.25;76.71
71764;BME280;59602;52.142;5.408;2023-08-24T17:27:00;101136.25;;;24.19;76.61
71764;BME280;59602;52.142;5.408;2023-08-24T17:30:03;101140.44;;;24.14;76.26
71764;BME280;59602;52.142;5.408;2023-08-24T17:33:09;101138.56;;;24.11;76.28
71764;BME280;59602;52.142;5.408;2023-08-24T17:35:59;101134.91;;;24.05;76.11
71764;BME280;59602;52.142;5.408;2023-08-24T17:42:04;101130.59;;;23.95;77.58
71764;BME280;59602;52.142;5.408;2023-08-24T17:44:34;101120.13;;;23.90;76.85
71764;BME280;59602;52.142;5.408;2023-08-24T17:47:41;101117.03;;;23.88;77.41
71764;BME280;59602;52.142;5.408;2023-08-24T17:50:27;101121.66;;;23.81;77.96
71764;BME280;59602;52.142;5.408;2023-08-24T17:52:59;101117.50;;;23.77;78.43
71764;BME280;59602;52.142;5.408;2023-08-24T17:56:02;101111.66;;;23.75;78.17
71764;BME280;59602;52.142;5.408;2023-08-24T17:59:16;101104.53;;;23.65;79.06
71764;BME280;59602;52.142;5.408;2023-08-24T18:02:12;101096.81;;;23.59;79.51
71764;BME280;59602;52.142;5.408;2023-08-24T18:04:43;101092.97;;;23.57;79.15
71764;BME280;59602;52.142;5.408;2023-08-24T18:07:26;101094.38;;;23.52;78.98
71764;BME280;59602;52.142;5.408;2023-08-24T18:09:59;101092.53;;;23.49;79.52
71764;BME280;59602;52.142;5.408;2023-08-24T18:12:25;101096.22;;;23.46;79.05
71764;BME280;59602;52.142;5.408;2023-08-24T18:14:52;101092.34;;;23.44;79.75
71764;BME280;59602;52.142;5.408;2023-08-24T18:17:35;101086.66;;;23.38;80.09
71764;BME280;59602;52.142;5.408;2023-08-24T18:20:04;101086.97;;;23.31;79.93
71764;BME280;59602;52.142;5.408;2023-08-24T18:22:31;101087.88;;;23.28;80.47
71764;BME280;59602;52.142;5.408;2023-08-24T18:28:21;101086.34;;;23.17;80.94
71764;BME280;59602;52.142;5.408;2023-08-24T18:38:20;101086.94;;;23.03;81.79
71764;BME280;59602;52.142;5.408;2023-08-24T18:41:20;101077.97;;;22.99;81.35
71764;BME280;59602;52.142;5.408;2023-08-24T18:44:21;101080.13;;;22.95;82.51
71764;BME280;59602;52.142;5.408;2023-08-24T18:47:26;101089.38;;;22.92;83.21
71764;BME280;59602;52.142;5.408;2023-08-24T18:50:12;101079.34;;;22.85;83.48
71764;BME280;59602;52.142;5.408;2023-08-24T18:52:48;101071.63;;;22.80;83.22
71764;BME280;59602;52.142;5.408;2023-08-24T18:55:20;101089.66;;;22.75;83.34
71764;BME280;59602;52.142;5.408;2023-08-24T18:57:48;101092.56;;;22.72;83.94
71764;BME280;59602;52.142;5.408;2023-08-24T19:00:15;101091.47;;;22.69;84.15
71764;BME280;59602;52.142;5.408;2023-08-24T19:02:42;101082.06;;;22.67;84.03
71764;BME280;59602;52.142;5.408;2023-08-24T19:05:09;101082.53;;;22.65;83.96
71764;BME280;59602;52.142;5.408;2023-08-24T19:07:36;101080.69;;;22.62;84.37
71764;BME280;59602;52.142;5.408;2023-08-24T19:10:04;101084.34;;;22.59;84.38
71764;BME280;59602;52.142;5.408;2023-08-24T19:12:31;101095.44;;;22.59;85.02
71764;BME280;59602;52.142;5.408;2023-08-24T19:14:58;101097.56;;;22.55;85.15
71764;BME280;59602;52.142;5.408;2023-08-24T19:17:24;101096.47;;;22.52;85.25
71764;BME280;59602;52.142;5.408;2023-08-24T19:19:51;101102.94;;;22.49;84.99
71764;BME280;59602;52.142;5.408;2023-08-24T19:22:18;101108.19;;;22.47;85.07
71764;BME280;59602;52.142;5.408;2023-08-24T19:24:44;101106.66;;;22.46;85.21
71764;BME280;59602;52.142;5.408;2023-08-24T19:27:11;101102.00;;;22.43;85.67
71764;BME280;59602;52.142;5.408;2023-08-24T19:29:38;101103.25;;;22.42;85.63
71764;BME280;59602;52.142;5.408;2023-08-24T19:32:06;101095.50;;;22.37;85.29
71764;BME280;59602;52.142;5.408;2023-08-24T19:34:32;101095.22;;;22.35;85.31
71764;BME280;59602;52.142;5.408;2023-08-24T19:36:59;101089.66;;;22.35;84.91
71764;BME280;59602;52.142;5.408;2023-08-24T19:39:25;101080.13;;;22.36;85.45
71764;BME280;59602;52.142;5.408;2023-08-24T19:41:52;101073.03;;;22.35;85.45
71764;BME280;59602;52.142;5.408;2023-08-24T19:44:25;101072.56;;;22.36;85.71
71764;BME280;59602;52.142;5.408;2023-08-24T19:46:53;101077.78;;;22.34;85.95
71764;BME280;59602;52.142;5.408;2023-08-24T19:49:20;101067.63;;;22.31;85.63
71764;BME280;59602;52.142;5.408;2023-08-24T19:51:46;101041.94;;;22.31;86.12
71764;BME280;59602;52.142;5.408;2023-08-24T19:54:13;101022.06;;;22.32;86.39
71764;BME280;59602;52.142;5.408;2023-08-24T19:56:40;101015.75;;;22.32;87.08
71764;BME280;59602;52.142;5.408;2023-08-24T19:59:09;101010.22;;;22.32;87.14
71764;BME280;59602;52.142;5.408;2023-08-24T20:01:35;101006.69;;;22.31;87.64
71764;BME280;59602;52.142;5.408;2023-08-24T20:04:02;101006.34;;;22.29;87.78
71764;BME280;59602;52.142;5.408;2023-08-24T20:06:32;101012.03;;;22.26;88.09
71764;BME280;59602;52.142;5.408;2023-08-24T20:08:59;101019.75;;;22.22;88.63
71764;BME280;59602;52.142;5.408;2023-08-24T20:11:26;101011.22;;;22.16;89.35
71764;BME280;59602;52.142;5.408;2023-08-24T20:13:56;101019.97;;;22.14;89.52
71764;BME280;59602;52.142;5.408;2023-08-24T20:16:25;101020.56;;;22.09;89.56
71764;BME280;59602;52.142;5.408;2023-08-24T20:18:51;101030.69;;;22.03;89.60
71764;BME280;59602;52.142;5.408;2023-08-24T20:21:18;101029.75;;;21.97;90.10
71764;BME280;59602;52.142;5.408;2023-08-24T20:23:45;101027.09;;;21.93;90.21
71764;BME280;59602;52.142;5.408;2023-08-24T20:26:11;101024.78;;;21.92;90.67
71764;BME280;59602;52.142;5.408;2023-08-24T20:28:40;101030.00;;;21.90;90.54
71764;BME280;59602;52.142;5.408;2023-08-24T20:31:07;101015.84;;;21.88;90.73
71764;BME280;59602;52.142;5.408;2023-08-24T20:33:35;101008.78;;;21.87;90.91
71764;BME280;59602;52.142;5.408;2023-08-24T20:36:02;101013.53;;;21.86;91.12
71764;BME280;59602;52.142;5.408;2023-08-24T20:38:29;101012.00;;;21.85;91.06
71764;BME280;59602;52.142;5.408;2023-08-24T20:41:00;101047.81;;;21.80;91.08
71764;BME280;59602;52.142;5.408;2023-08-24T20:43:28;101077.56;;;21.66;91.68
71764;BME280;59602;52.142;5.408;2023-08-24T20:45:55;101093.06;;;21.64;92.14
71764;BME280;59602;52.142;5.408;2023-08-24T20:48:22;101095.03;;;21.63;92.13
71764;BME280;59602;52.142;5.408;2023-08-24T20:50:48;101111.03;;;21.59;92.13
71764;BME280;59602;52.142;5.408;2023-08-24T20:53:15;101104.38;;;21.56;92.29
71764;BME280;59602;52.142;5.408;2023-08-24T20:55:42;101097.19;;;21.59;92.11
71764;BME280;59602;52.142;5.408;2023-08-24T20:58:09;101102.25;;;21.61;92.19
71764;BME280;59602;52.142;5.408;2023-08-24T21:00:35;101112.56;;;21.60;92.09
71764;BME280;59602;52.142;5.408;2023-08-24T21:03:05;101121.75;;;21.57;92.25
71764;BME280;59602;52.142;5.408;2023-08-24T21:05:33;101126.50;;;21.56;92.46
71764;BME280;59602;52.142;5.408;2023-08-24T21:08:01;101134.03;;;21.56;92.75
71764;BME280;59602;52.142;5.408;2023-08-24T21:10:30;101116.34;;;21.53;92.43
71764;BME280;59602;52.142;5.408;2023-08-24T21:12:57;101116.03;;;21.51;92.50
71764;BME280;59602;52.142;5.408;2023-08-24T21:15:26;101113.69;;;21.50;92.42
71764;BME280;59602;52.142;5.408;2023-08-24T21:17:54;101108.16;;;21.50;92.72
71764;BME280;59602;52.142;5.408;2023-08-24T21:20:22;101105.84;;;21.48;92.55
71764;BME280;59602;52.142;5.408;2023-08-24T21:22:49;101102.75;;;21.46;92.53
71764;BME280;59602;52.142;5.408;2023-08-24T21:25:46;101104.78;;;21.46;92.80
71764;BME280;59602;52.142;5.408;2023-08-24T21:28:13;101097.66;;;21.45;92.88
71764;BME280;59602;52.142;5.408;2023-08-24T21:30:39;101075.97;;;21.43;92.53
71764;BME280;59602;52.142;5.408;2023-08-24T21:33:09;101058.63;;;21.43;92.49
71764;BME280;59602;52.142;5.408;2023-08-24T21:35:39;101042.78;;;21.43;92.49
71764;BME280;59602;52.142;5.408;2023-08-24T21:38:07;101019.13;;;21.42;92.82
71764;BME280;59602;52.142;5.408;2023-08-24T21:40:56;101017.13;;;21.43;92.74
71764;BME280;59602;52.142;5.408;2023-08-24T21:43:26;100994.97;;;21.43;92.85
71764;BME280;59602;52.142;5.408;2023-08-24T21:45:55;100974.41;;;21.44;92.62
71764;BME280;59602;52.142;5.408;2023-08-24T21:48:48;100971.16;;;21.45;93.05
71764;BME280;59602;52.142;5.408;2023-08-24T21:51:17;100981.47;;;21.45;92.60
71764;BME280;59602;52.142;5.408;2023-08-24T21:53:44;100988.25;;;21.44;92.63
71764;BME280;59602;52.142;5.408;2023-08-24T21:56:16;100987.16;;;21.41;92.71
71764;BME280;59602;52.142;5.408;2023-08-24T21:58:45;100997.06;;;21.39;92.72
71764;BME280;59602;52.142;5.408;2023-08-24T22:01:21;101008.13;;;21.39;92.89
71764;BME280;59602;52.142;5.408;2023-08-24T22:03:50;101012.13;;;21.38;93.22
71764;BME280;59602;52.142;5.408;2023-08-24T22:06:21;101035.19;;;21.34;93.06
71764;BME280;59602;52.142;5.408;2023-08-24T22:08:48;101037.63;;;21.32;93.45
71764;BME280;59602;52.142;5.408;2023-08-24T22:11:15;101048.22;;;21.34;93.45
71764;BME280;59602;52.142;5.408;2023-08-24T22:13:43;101066.94;;;21.30;93.65
71764;BME280;59602;52.142;5.408;2023-08-24T22:16:09;101080.91;;;21.26;93.98
71764;BME280;59602;52.142;5.408;2023-08-24T22:18:36;101078.72;;;21.21;93.97
71764;BME280;59602;52.142;5.408;2023-08-24T22:21:03;101090.97;;;21.20;94.14
71764;BME280;59602;52.142;5.408;2023-08-24T22:23:33;101085.88;;;21.19;94.34
71764;BME280;59602;52.142;5.408;2023-08-24T22:26:03;101083.13;;;21.19;94.19
71764;BME280;59602;52.142;5.408;2023-08-24T22:28:32;101086.69;;;21.19;94.27
71764;BME280;59602;52.142;5.408;2023-08-24T22:30:59;101092.22;;;21.19;94.50
71764;BME280;59602;52.142;5.408;2023-08-24T22:33:28;101078.50;;;21.15;94.31
71764;BME280;59602;52.142;5.408;2023-08-24T22:36:03;101068.78;;;21.11;94.69
71764;BME280;59602;52.142;5.408;2023-08-24T22:38:30;101073.53;;;21.10;94.64
71764;BME280;59602;52.142;5.408;2023-08-24T22:41:12;101069.22;;;21.09;94.77
71764;BME280;59602;52.142;5.408;2023-08-24T22:43:43;101071.97;;;21.09;94.73
71764;BME280;59602;52.142;5.408;2023-08-24T22:46:12;101063.81;;;21.06;94.62
71764;BME280;59602;52.142;5.408;2023-08-24T22:48:39;101063.03;;;21.05;94.70
71764;BME280;59602;52.142;5.408;2023-08-24T22:51:06;101063.94;;;21.02;94.63
71764;BME280;59602;52.142;5.408;2023-08-24T22:53:33;101054.53;;;21.00;94.66
71764;BME280;59602;52.142;5.408;2023-08-24T22:56:00;101043.59;;;20.96;94.56
71764;BME280;59602;52.142;5.408;2023-08-24T22:58:27;101057.09;;;20.94;94.08
71764;BME280;59602;52.142;5.408;2023-08-24T23:00:53;101058.41;;;20.89;93.99
71764;BME280;59602;52.142;5.408;2023-08-24T23:03:21;101054.56;;;20.87;93.97
71764;BME280;59602;52.142;5.408;2023-08-24T23:06:03;101049.59;;;20.82;93.87
71764;BME280;59602;52.142;5.408;2023-08-24T23:08:30;101049.28;;;20.80;93.95
71764;BME280;59602;52.142;5.408;2023-08-24T23:10:57;101056.91;;;20.76;94.02
71764;BME280;59602;52.142;5.408;2023-08-24T23:13:24;101043.53;;;20.74;93.99
71764;BME280;59602;52.142;5.408;2023-08-24T23:15:51;101052.72;;;20.71;93.86
71764;BME280;59602;52.142;5.408;2023-08-24T23:18:17;101048.41;;;20.70;94.35
71764;BME280;59602;52.142;5.408;2023-08-24T23:20:44;101050.09;;;20.67;93.45
71764;BME280;59602;52.142;5.408;2023-08-24T23:23:19;101049.84;;;20.62;93.45
71764;BME280;59602;52.142;5.408;2023-08-24T23:25:48;101045.22;;;20.59;93.94
71764;BME280;59602;52.142;5.408;2023-08-24T23:28:38;101050.44;;;20.57;94.11
71764;BME280;59602;52.142;5.408;2023-08-24T23:31:07;101052.50;;;20.52;93.93
71764;BME280;59602;52.142;5.408;2023-08-24T23:33:33;101052.94;;;20.51;94.15
71764;BME280;59602;52.142;5.408;2023-08-24T23:36:00;101050.16;;;20.51;94.04
71764;BME280;59602;52.142;5.408;2023-08-24T23:38:27;101066.75;;;20.51;94.05
71764;BME280;59602;52.142;5.408;2023-08-24T23:40:58;101063.97;;;20.51;94.46
71764;BME280;59602;52.142;5.408;2023-08-24T23:43:28;101064.75;;;20.51;94.12
71764;BME280;59602;52.142;5.408;2023-08-24T23:46:06;101063.66;;;20.49;94.29
71764;BME280;59602;52.142;5.408;2023-08-24T23:48:33;101067.19;;;20.49;94.45
71764;BME280;59602;52.142;5.408;2023-08-24T23:51:01;101064.41;;;20.49;94.67
71764;BME280;59602;52.142;5.408;2023-08-24T23:53:28;101062.88;;;20.48;94.94
71764;BME280;59602;52.142;5.408;2023-08-24T23:55:55;101060.13;;;20.48;94.74
71764;BME280;59602;52.142;5.408;2023-08-24T23:58:25;101048.41;;;20.44;94.71
